Airfield :
LOGIN :

Register | Disclaimer

   EN    FR    IT 

 










Legend :    VFR   Marginal VFR   IFR   Intensive IFR   Very Intensive IFR
Visi :
Ceiling :
>= 8 km
>= 3000ft
5 to 8 km
1000 to 3000 ft
1500m to 5 km
500 to 1000 ft
800 to 1500m
200 to 500 ft
< 800m
< 200 ft
Symbols :   Thunderstorms  Fog  Heavy snow  Heavy precipitations  Wind > 20 kt
SIGMETs :     Misc.  Thunderstorms  Icing  Turbulence  Mountain Waves  Volcanic Ashes






- Airport Elevation : 309 ft
- IATA code : FNI


LFTW - Nîmes Garons

CURRENT METAR :
  • 260600Z AUTO 32009KT 260V350 9000 +TSRA OVC016/// ///CB 09/08 Q1019 TEMPO VRB15G25KT 1200 TSRA BKN005 SCT010CB

EXPIRED METARs :
  • 260530Z AUTO 02007KT 350V060 9999 -TSRA OVC017/// ///CB 09/08 Q1018 TEMPO VRB15G25KT 1200 TSRA BKN005 SCT010CB
  • 260500Z AUTO 01005KT 350V060 9999 VCTS OVC015/// ///CB 09/07 Q1018 TEMPO 4000 SHRA BKN008 SCT014TCU
  • 260430Z AUTO 11009KT 9999 BKN014/// BKN022/// BKN029/// ///CB 09/07 Q1018 TEMPO 4000 SHRA BKN008 SCT014TCU BECMG 05010KT
  • 260400Z AUTO 11009KT 9999 FEW027/// SCT032/// BKN040/// ///CB 09/07 Q1018 TEMPO 4000 SHRA BKN008 SCT014TCU BECMG 05010KT
  • 260330Z AUTO 10007KT 9999 FEW017/// BKN034/// BKN042/// ///CB 09/07 Q1018 TEMPO 4000 SHRA BKN008 SCT014TCU

TAF AMD TAF LFTW
Valid from the 26 at 05:00 until the 27 at 03:00 UTC


260504Z 2605/2703 05010KT 9999 SCT015 BKN020
TEMPO 2605/2609 4000 SHRA BKN008 SCT014TCU
TEMPO 2605/2613 VRB15G25KT 1200 TSRA BKN005 SCT010CB
BECMG 2619/2621 CAVOK



MET'MAP, your aeronautical weather chart ! - Copyright ORBIFLY December 2007 - Disclaimer

ORBIFLY MET'MAP TEAM :

Programming & Development : Alexandra Zaïnal
Concept & original design : Baudouin d'Aumeries
Assistance for programming : Marc-Olivier Méhu
Technical & hardware support : Manuel Goepfert

Contact : metmap@orbifly.com




SOURCES & CREDITS :

   NOAA